Time;durP1;ratioP1;P1;durP2;ratioP2;P2;SDS_P1;SDS_P2;PMS_P1;PMS_P2;Temp;Humidity;BMP_temperature;BMP_pressure;BME280_temperature;BME280_humidity;BME280_pressure;Samples;Min_cycle;Max_cycle;Signal;HPM_P1;HPM_P2
2024/02/03 00:00:12;;;;;;;41.40;23.97;;;5.70;97.80;;;;;;6158632;23;20379;-66
2024/02/03 00:02:38;;;;;;;40.13;23.40;;;5.70;98.00;;;;;;6185171;23;20115;-66
2024/02/03 00:05:04;;;;;;;41.93;22.07;;;5.70;98.10;;;;;;6185102;23;20044;-66
2024/02/03 00:07:30;;;;;;;51.53;24.10;;;5.70;98.20;;;;;;6184492;23;20379;-66
2024/02/03 00:09:56;;;;;;;40.33;23.83;;;5.80;97.90;;;;;;6184563;23;20008;-66
2024/02/03 00:12:25;;;;;;;37.40;22.17;;;5.80;97.70;;;;;;6184524;23;20001;-65
2024/02/03 00:14:51;;;;;;;38.00;21.00;;;5.70;97.70;;;;;;6184441;23;20312;-66
2024/02/03 00:17:17;;;;;;;31.53;20.13;;;5.70;97.60;;;;;;6184396;23;20025;-65
2024/02/03 00:19:43;;;;;;;36.57;22.23;;;5.70;97.80;;;;;;6184300;23;20005;-65
2024/02/03 00:22:10;;;;;;;36.33;22.90;;;5.70;97.80;;;;;;6184453;23;20005;-65
2024/02/03 00:24:35;;;;;;;40.10;24.47;;;5.70;97.80;;;;;;6183793;23;20017;-65
2024/02/03 00:27:02;;;;;;;52.87;28.37;;;5.70;97.60;;;;;;6184726;23;20001;-66
2024/02/03 00:29:28;;;;;;;54.40;30.37;;;5.70;97.40;;;;;;6184493;23;20156;-66
2024/02/03 00:31:54;;;;;;;49.87;29.63;;;5.70;97.10;;;;;;6184426;23;20033;-65
2024/02/03 00:34:20;;;;;;;51.83;30.27;;;5.60;97.10;;;;;;6185139;23;20001;-66
2024/02/03 00:36:45;;;;;;;57.57;29.67;;;5.50;97.20;;;;;;6184810;23;20060;-66
2024/02/03 00:39:11;;;;;;;53.87;27.70;;;5.50;97.30;;;;;;6185274;23;20015;-66
2024/02/03 00:41:37;;;;;;;49.47;26.97;;;5.50;97.30;;;;;;6185403;23;20001;-66
2024/02/03 00:44:03;;;;;;;47.73;26.53;;;5.40;97.40;;;;;;6185674;23;20001;-65
2024/02/03 00:46:29;;;;;;;47.07;26.77;;;5.30;97.60;;;;;;6184820;23;20076;-65
2024/02/03 00:48:55;;;;;;;46.37;26.83;;;5.40;97.60;;;;;;6184750;23;20025;-66
2024/02/03 00:51:21;;;;;;;50.93;27.77;;;5.30;97.60;;;;;;6185524;23;20094;-65
2024/02/03 00:53:46;;;;;;;45.20;25.30;;;5.30;97.60;;;;;;6185001;23;20663;-66
2024/02/03 00:56:12;;;;;;;38.33;23.40;;;5.30;97.60;;;;;;6184921;23;20009;-65
2024/02/03 00:58:38;;;;;;;38.53;22.00;;;5.20;97.90;;;;;;6184508;23;20036;-66
2024/02/03 01:01:04;;;;;;;38.17;22.00;;;5.20;98.10;;;;;;6184789;23;20005;-65
2024/02/03 01:03:30;;;;;;;39.10;21.47;;;5.20;98.20;;;;;;6157611;23;20001;-65
2024/02/03 01:05:56;;;;;;;35.70;21.60;;;5.10;98.50;;;;;;6183212;23;20024;-65
2024/02/03 01:08:22;;;;;;;35.93;21.47;;;5.10;98.50;;;;;;6183902;23;20024;-65
2024/02/03 01:10:48;;;;;;;33.33;19.83;;;5.10;98.60;;;;;;6183830;23;20072;-66
2024/02/03 01:13:14;;;;;;;41.37;22.27;;;5.10;98.70;;;;;;6183602;23;20001;-66
2024/02/03 01:15:39;;;;;;;38.90;22.20;;;5.10;98.70;;;;;;6183766;23;20005;-66
2024/02/03 01:18:05;;;;;;;37.13;21.30;;;5.10;98.70;;;;;;6183699;23;19998;-65
2024/02/03 01:20:32;;;;;;;41.90;22.33;;;5.00;98.70;;;;;;6184332;23;20072;-65
2024/02/03 01:22:58;;;;;;;36.53;21.20;;;5.00;98.80;;;;;;6185234;23;20084;-65
2024/02/03 01:25:24;;;;;;;37.83;21.37;;;5.00;98.70;;;;;;6184940;23;20438;-65
2024/02/03 01:27:50;;;;;;;40.17;22.10;;;5.00;98.70;;;;;;6184776;23;20088;-66
2024/02/03 01:30:16;;;;;;;38.93;21.90;;;5.00;98.60;;;;;;6185057;23;20029;-65
2024/02/03 01:32:42;;;;;;;32.87;21.27;;;5.00;98.70;;;;;;6184930;23;20005;-66
2024/02/03 01:35:08;;;;;;;32.10;20.27;;;4.90;98.90;;;;;;6184680;23;20080;-65
2024/02/03 01:37:35;;;;;;;38.10;21.07;;;4.90;98.90;;;;;;6185258;23;20008;-66
2024/02/03 01:40:01;;;;;;;39.47;20.27;;;4.90;99.00;;;;;;6185182;23;20013;-65
2024/02/03 01:42:28;;;;;;;31.47;19.40;;;4.90;99.10;;;;;;6184606;23;20001;-66
2024/02/03 01:44:53;;;;;;;34.30;20.27;;;4.90;99.20;;;;;;6184850;23;20012;-66
2024/02/03 01:47:20;;;;;;;39.60;22.03;;;4.90;99.30;;;;;;6184473;23;20339;-65
2024/02/03 01:49:46;;;;;;;35.47;20.77;;;4.90;99.20;;;;;;6184702;23;19997;-66
2024/02/03 01:52:13;;;;;;;33.83;20.47;;;4.90;99.00;;;;;;6184824;23;20001;-65
2024/02/03 01:54:43;;;;;;;36.27;20.03;;;4.90;98.90;;;;;;6184753;23;20432;-65
2024/02/03 01:57:09;;;;;;;39.50;22.17;;;4.80;99.00;;;;;;6183142;23;20424;-65
2024/02/03 01:59:35;;;;;;;36.53;21.60;;;4.80;99.00;;;;;;6181559;23;20009;-66
2024/02/03 02:02:01;;;;;;;34.40;20.63;;;4.80;99.10;;;;;;6181506;23;20002;-65
2024/02/03 02:04:31;;;;;;;37.97;20.50;;;4.70;99.40;;;;;;6182182;23;20442;-65
2024/02/03 02:06:58;;;;;;;33.00;20.10;;;4.70;99.50;;;;;;6184115;23;20459;-65
2024/02/03 02:09:25;;;;;;;38.73;22.57;;;4.70;99.60;;;;;;6185607;23;20004;-66
2024/02/03 02:11:52;;;;;;;36.23;22.43;;;4.70;99.70;;;;;;6186538;23;20609;-65
2024/02/03 02:14:22;;;;;;;42.07;23.97;;;4.60;99.70;;;;;;6186188;23;20512;-66
2024/02/03 02:16:47;;;;;;;39.07;23.13;;;4.60;99.60;;;;;;6186190;23;20008;-66
2024/02/03 02:19:15;;;;;;;41.07;21.90;;;4.60;99.50;;;;;;6186034;23;20364;-66
2024/02/03 02:21:41;;;;;;;41.57;23.83;;;4.60;99.40;;;;;;6185964;23;20431;-65
2024/02/03 02:24:07;;;;;;;41.37;22.77;;;4.60;99.50;;;;;;6186360;23;20072;-66
2024/02/03 02:26:32;;;;;;;34.03;19.03;;;4.60;99.50;;;;;;6186484;23;20040;-65
2024/02/03 02:28:58;;;;;;;26.97;17.27;;;4.50;99.80;;;;;;6185667;23;20021;-65
2024/02/03 02:31:24;;;;;;;35.63;18.30;;;4.50;99.90;;;;;;6186278;23;19997;-66
2024/02/03 02:33:49;;;;;;;32.77;16.63;;;4.60;99.80;;;;;;6186191;23;20013;-66
2024/02/03 02:36:15;;;;;;;29.73;15.97;;;4.60;99.60;;;;;;6186099;23;20071;-66
2024/02/03 02:38:41;;;;;;;34.83;17.90;;;4.60;99.50;;;;;;6186183;23;20052;-65
2024/02/03 02:41:09;;;;;;;38.47;21.50;;;4.60;99.30;;;;;;6186138;23;20005;-66
2024/02/03 02:43:34;;;;;;;37.30;19.97;;;4.60;99.20;;;;;;6186177;23;20031;-65
2024/02/03 02:46:00;;;;;;;33.17;19.00;;;4.50;99.00;;;;;;6186189;23;20013;-66
2024/02/03 02:48:26;;;;;;;32.43;20.40;;;4.40;99.30;;;;;;6186455;23;20025;-66
2024/02/03 02:50:52;;;;;;;35.07;21.03;;;4.50;99.40;;;;;;6186226;23;20067;-65
2024/02/03 02:53:17;;;;;;;33.57;19.70;;;4.50;99.40;;;;;;6185852;23;20001;-66
2024/02/03 02:55:43;;;;;;;33.80;18.83;;;4.40;99.40;;;;;;6186317;23;20009;-66
2024/02/03 02:58:09;;;;;;;31.13;18.00;;;4.40;99.50;;;;;;6186181;23;20005;-66
2024/02/03 03:00:35;;;;;;;30.20;16.77;;;4.40;99.90;;;;;;6186351;23;20009;-65
2024/02/03 03:03:00;;;;;;;29.20;17.40;;;4.40;99.90;;;;;;6186000;23;19997;-65
2024/02/03 03:05:26;;;;;;;27.60;16.20;;;4.40;99.90;;;;;;6185435;23;20009;-66
2024/02/03 03:07:52;;;;;;;31.60;17.33;;;4.30;99.90;;;;;;6186177;23;20454;-65
2024/02/03 03:10:18;;;;;;;28.17;15.80;;;4.30;99.90;;;;;;6185982;23;20012;-65
2024/02/03 03:12:43;;;;;;;25.57;15.67;;;4.30;99.90;;;;;;6186368;23;20012;-65
2024/02/03 03:15:09;;;;;;;28.27;15.60;;;4.30;99.90;;;;;;6186140;23;20004;-66
2024/02/03 03:17:35;;;;;;;25.00;15.60;;;4.30;99.90;;;;;;6185852;23;20008;-66
2024/02/03 03:20:01;;;;;;;29.53;14.17;;;4.30;99.90;;;;;;6185958;23;20347;-65
2024/02/03 03:22:27;;;;;;;27.50;15.47;;;4.40;99.90;;;;;;6186046;23;20001;-65
2024/02/03 03:24:53;;;;;;;25.10;14.50;;;4.40;99.90;;;;;;6185923;23;20016;-65
2024/02/03 03:27:19;;;;;;;22.93;14.13;;;4.30;99.90;;;;;;6186269;23;20017;-65
2024/02/03 03:29:49;;;;;;;24.10;13.40;;;4.40;99.90;;;;;;6185739;23;20023;-66
2024/02/03 03:32:15;;;;;;;22.07;13.83;;;4.40;99.90;;;;;;6186059;23;20004;-65
2024/02/03 03:34:41;;;;;;;28.77;14.87;;;4.40;99.90;;;;;;6186085;23;20056;-66
2024/02/03 03:37:07;;;;;;;28.37;13.67;;;4.40;99.90;;;;;;6185928;23;20000;-65
2024/02/03 03:39:32;;;;;;;30.13;14.13;;;4.40;99.90;;;;;;6185558;23;20001;-66
2024/02/03 03:41:58;;;;;;;20.43;12.53;;;4.40;99.90;;;;;;6185764;23;20009;-66
2024/02/03 03:44:24;;;;;;;27.63;13.80;;;4.40;99.90;;;;;;6185862;23;20028;-65
2024/02/03 03:46:50;;;;;;;20.23;12.07;;;4.40;99.90;;;;;;6185403;23;20013;-65
2024/02/03 03:49:15;;;;;;;25.57;14.93;;;4.40;99.90;;;;;;6185902;23;20004;-66
2024/02/03 03:51:41;;;;;;;26.40;13.43;;;4.40;99.90;;;;;;6185650;23;20001;-66
2024/02/03 03:54:07;;;;;;;25.63;13.90;;;4.30;99.90;;;;;;6185657;23;20001;-66
2024/02/03 03:56:33;;;;;;;22.97;13.60;;;4.40;99.90;;;;;;6185454;23;20001;-65
2024/02/03 03:58:59;;;;;;;24.53;12.90;;;4.30;99.90;;;;;;6185396;23;20007;-65
2024/02/03 04:01:25;;;;;;;24.80;13.90;;;4.40;99.90;;;;;;6185516;23;20384;-66
2024/02/03 04:03:51;;;;;;;27.43;15.67;;;4.30;99.90;;;;;;6185564;23;19997;-65
2024/02/03 04:06:16;;;;;;;32.07;17.77;;;4.30;99.90;;;;;;6159181;23;20068;-66
2024/02/03 04:08:42;;;;;;;32.80;17.27;;;4.30;99.90;;;;;;6185486;23;20301;-66
2024/02/03 04:11:08;;;;;;;24.60;15.67;;;4.30;99.90;;;;;;6159155;23;20013;-65
2024/02/03 04:13:34;;;;;;;27.40;16.23;;;4.30;99.90;;;;;;6185301;23;20016;-65
2024/02/03 04:15:59;;;;;;;35.97;16.20;;;4.30;99.90;;;;;;6185619;23;20100;-66
2024/02/03 04:18:25;;;;;;;27.13;15.03;;;4.30;99.90;;;;;;6185658;23;20072;-66
2024/02/03 04:20:51;;;;;;;29.30;15.07;;;4.30;99.90;;;;;;6185746;23;20009;-66
2024/02/03 04:23:17;;;;;;;25.97;15.00;;;4.30;99.90;;;;;;6185273;23;20016;-65
2024/02/03 04:25:43;;;;;;;24.77;14.50;;;4.30;99.90;;;;;;6185317;23;20009;-65
2024/02/03 04:28:08;;;;;;;23.10;14.03;;;4.30;99.90;;;;;;6185415;23;20012;-65
2024/02/03 04:30:34;;;;;;;24.37;14.47;;;4.30;99.90;;;;;;6185585;23;20009;-65
2024/02/03 04:33:00;;;;;;;21.97;13.23;;;4.30;99.90;;;;;;6184767;23;20001;-66
2024/02/03 04:35:25;;;;;;;20.27;13.07;;;4.20;99.90;;;;;;6185128;23;20016;-66
2024/02/03 04:37:52;;;;;;;23.30;13.57;;;4.30;99.90;;;;;;6185171;23;20007;-66
2024/02/03 04:40:17;;;;;;;25.47;13.30;;;4.30;99.90;;;;;;6185334;23;20001;-66
2024/02/03 04:42:43;;;;;;;21.57;12.87;;;4.30;99.90;;;;;;6185276;23;20001;-66
2024/02/03 04:45:09;;;;;;;19.33;11.87;;;4.30;99.90;;;;;;6185108;23;20032;-66
2024/02/03 04:47:35;;;;;;;20.47;10.27;;;4.40;99.90;;;;;;6185753;23;20059;-66
2024/02/03 04:50:04;;;;;;;16.37;10.03;;;4.30;99.90;;;;;;6185168;23;20001;-66
2024/02/03 04:52:29;;;;;;;16.03;11.03;;;4.40;99.90;;;;;;6185251;23;20009;-65
2024/02/03 04:54:55;;;;;;;16.83;11.10;;;4.40;99.90;;;;;;6185032;23;20028;-65
2024/02/03 04:57:21;;;;;;;17.63;9.80;;;4.40;99.90;;;;;;6185110;23;20001;-66
2024/02/03 04:59:46;;;;;;;18.13;10.13;;;4.40;99.90;;;;;;6184674;23;20439;-65
2024/02/03 05:02:12;;;;;;;16.33;10.10;;;4.40;99.90;;;;;;6185006;23;20008;-65
2024/02/03 05:04:38;;;;;;;16.40;9.57;;;4.40;99.90;;;;;;6158706;23;19997;-66
2024/02/03 05:07:04;;;;;;;17.30;10.00;;;4.40;99.90;;;;;;6184807;23;20017;-65
2024/02/03 05:09:30;;;;;;;17.60;11.83;;;4.40;99.90;;;;;;6183354;23;20076;-66
2024/02/03 05:11:55;;;;;;;21.80;12.77;;;4.40;99.90;;;;;;6184812;23;20431;-66
2024/02/03 05:14:21;;;;;;;25.80;14.10;;;4.40;99.90;;;;;;6184969;23;20487;-65
2024/02/03 05:16:47;;;;;;;23.70;14.03;;;4.40;99.90;;;;;;6185459;23;20076;-65
2024/02/03 05:19:12;;;;;;;23.93;14.93;;;4.40;99.90;;;;;;6184926;23;20383;-65
2024/02/03 05:21:42;;;;;;;26.93;14.90;;;4.40;99.90;;;;;;6185168;23;20009;-65
2024/02/03 05:24:08;;;;;;;30.37;15.50;;;4.40;99.90;;;;;;6184598;23;20444;-66
2024/02/03 05:26:33;;;;;;;26.53;14.97;;;4.30;99.90;;;;;;6184865;23;20009;-66
2024/02/03 05:28:59;;;;;;;25.73;15.17;;;4.20;99.90;;;;;;6184863;23;20025;-66
2024/02/03 05:31:25;;;;;;;26.43;14.50;;;4.20;99.90;;;;;;6184693;23;20009;-65
2024/02/03 05:33:51;;;;;;;25.17;14.40;;;4.20;99.90;;;;;;6158346;23;20001;-66
2024/02/03 05:36:16;;;;;;;23.83;14.33;;;4.10;99.90;;;;;;6184872;23;20005;-66
2024/02/03 05:38:42;;;;;;;26.77;14.07;;;4.00;99.90;;;;;;6158075;23;20005;-65
2024/02/03 05:41:08;;;;;;;24.27;14.33;;;4.10;99.90;;;;;;6184649;23;20028;-65
2024/02/03 05:43:33;;;;;;;22.80;14.17;;;4.00;99.90;;;;;;6184748;23;20076;-66
2024/02/03 05:45:59;;;;;;;20.90;12.40;;;4.00;99.90;;;;;;6186832;23;20013;-66
2024/02/03 05:48:25;;;;;;;23.97;11.67;;;4.00;99.90;;;;;;6186801;23;20005;-65
2024/02/03 05:50:51;;;;;;;18.77;11.07;;;4.00;99.90;;;;;;6186861;23;20446;-66
2024/02/03 05:53:17;;;;;;;20.67;10.63;;;4.10;99.90;;;;;;6186257;23;20005;-65
2024/02/03 05:55:43;;;;;;;19.83;10.07;;;4.10;99.90;;;;;;6187092;23;20054;-66
2024/02/03 05:58:09;;;;;;;14.90;9.53;;;4.10;99.90;;;;;;6186517;23;19997;-65
2024/02/03 06:00:34;;;;;;;16.87;9.37;;;4.10;99.90;;;;;;6186688;23;20079;-66
2024/02/03 06:03:02;;;;;;;18.70;8.73;;;4.20;99.90;;;;;;6186557;23;20072;-66
2024/02/03 06:05:27;;;;;;;13.20;8.73;;;4.20;99.90;;;;;;6186662;23;20466;-65
2024/02/03 06:07:53;;;;;;;15.97;9.67;;;4.20;99.90;;;;;;6186627;23;19997;-65
2024/02/03 06:10:19;;;;;;;13.53;8.70;;;4.30;99.90;;;;;;6186355;23;20001;-66
2024/02/03 06:12:45;;;;;;;15.77;8.93;;;4.20;99.90;;;;;;6186876;23;20009;-66
2024/02/03 06:15:10;;;;;;;18.37;9.40;;;4.20;99.90;;;;;;6186647;23;20005;-65
2024/02/03 06:17:36;;;;;;;15.03;9.43;;;4.20;99.90;;;;;;6186604;23;20004;-66
2024/02/03 06:20:02;;;;;;;20.07;9.33;;;4.20;99.90;;;;;;6186816;23;20071;-65
2024/02/03 06:22:28;;;;;;;12.73;8.90;;;4.30;99.90;;;;;;6186274;23;20013;-65
2024/02/03 06:24:53;;;;;;;20.27;10.93;;;4.30;99.90;;;;;;6186343;23;20016;-65
2024/02/03 06:27:19;;;;;;;20.63;11.97;;;4.30;99.90;;;;;;6186421;23;20009;-65
2024/02/03 06:29:45;;;;;;;22.73;12.83;;;4.30;99.90;;;;;;6186097;23;20001;-65
2024/02/03 06:32:11;;;;;;;20.87;12.73;;;4.20;99.90;;;;;;6186302;23;20004;-65
2024/02/03 06:34:37;;;;;;;22.97;12.40;;;4.20;99.90;;;;;;6186147;23;20690;-65
2024/02/03 06:37:03;;;;;;;20.90;12.40;;;4.20;99.90;;;;;;6185830;23;20092;-65
2024/02/03 06:39:29;;;;;;;27.73;12.77;;;4.20;99.90;;;;;;6186322;23;20002;-65
2024/02/03 06:41:55;;;;;;;22.80;12.80;;;4.10;99.90;;;;;;6186849;23;20012;-65
2024/02/03 06:44:20;;;;;;;19.63;12.20;;;4.10;99.90;;;;;;6186366;23;20005;-65
2024/02/03 06:46:46;;;;;;;18.23;12.23;;;4.10;99.90;;;;;;6186297;23;20045;-65
2024/02/03 06:49:12;;;;;;;28.53;13.80;;;4.10;99.90;;;;;;6186234;23;20080;-65
2024/02/03 06:51:38;;;;;;;22.73;12.43;;;4.10;99.90;;;;;;6186136;23;20005;-66
2024/02/03 06:54:04;;;;;;;26.27;12.90;;;4.00;99.90;;;;;;6186578;23;20001;-66
2024/02/03 06:56:30;;;;;;;25.93;14.37;;;4.00;99.90;;;;;;6185731;23;20013;-65
2024/02/03 06:58:56;;;;;;;26.97;13.73;;;4.00;99.90;;;;;;6186128;23;20077;-66
2024/02/03 07:01:22;;;;;;;26.50;14.23;;;4.00;99.90;;;;;;6186042;23;20035;-66
2024/02/03 07:03:48;;;;;;;23.83;13.80;;;4.00;99.90;;;;;;6186195;23;20088;-66
2024/02/03 07:06:13;;;;;;;27.37;14.60;;;4.00;99.90;;;;;;6185476;23;20422;-66
2024/02/03 07:08:39;;;;;;;32.43;15.70;;;4.10;99.90;;;;;;6185730;23;20008;-65
2024/02/03 07:11:06;;;;;;;29.93;15.30;;;4.00;99.90;;;;;;6185720;23;20062;-65
2024/02/03 07:13:31;;;;;;;33.13;14.57;;;4.00;99.90;;;;;;6185619;23;20048;-65
2024/02/03 07:15:57;;;;;;;24.03;14.43;;;4.00;99.90;;;;;;6185878;23;20371;-65
2024/02/03 07:18:23;;;;;;;26.07;13.97;;;3.90;99.90;;;;;;6185522;23;20008;-65
2024/02/03 07:20:49;;;;;;;26.43;13.93;;;3.90;99.90;;;;;;6185260;23;20032;-66
2024/02/03 07:23:14;;;;;;;25.50;15.13;;;3.90;99.90;;;;;;6185206;23;20060;-65
2024/02/03 07:25:40;;;;;;;31.50;15.47;;;3.90;99.90;;;;;;6185197;23;20380;-66
2024/02/03 07:28:06;;;;;;;25.73;14.77;;;3.90;99.90;;;;;;6185715;23;20371;-65
2024/02/03 07:30:32;;;;;;;31.97;14.13;;;3.90;99.90;;;;;;6185430;23;20375;-65
2024/02/03 07:32:57;;;;;;;28.53;15.37;;;4.00;99.90;;;;;;6185755;23;20047;-65
2024/02/03 07:35:24;;;;;;;27.07;14.40;;;4.00;99.90;;;;;;6185144;23;20470;-66
2024/02/03 07:37:50;;;;;;;22.57;13.23;;;4.00;99.90;;;;;;6184935;23;20001;-65
2024/02/03 07:40:16;;;;;;;26.63;14.03;;;4.10;99.90;;;;;;6185128;23;20006;-65
2024/02/03 07:42:41;;;;;;;22.60;13.67;;;4.10;99.90;;;;;;6185072;23;20011;-65
2024/02/03 07:45:08;;;;;;;26.90;14.47;;;4.20;99.90;;;;;;6184379;23;20005;-66
2024/02/03 07:47:33;;;;;;;32.57;17.60;;;4.20;99.90;;;;;;6184668;23;20393;-65
2024/02/03 07:49:59;;;;;;;32.73;16.83;;;4.20;99.90;;;;;;6183066;23;20001;-65
2024/02/03 07:52:25;;;;;;;30.73;16.27;;;4.10;99.90;;;;;;6184764;23;20008;-65
2024/02/03 07:54:51;;;;;;;31.53;16.27;;;4.20;99.90;;;;;;6185183;23;20001;-65
2024/02/03 07:57:17;;;;;;;37.90;17.23;;;4.20;99.90;;;;;;6184962;23;20085;-65
2024/02/03 07:59:42;;;;;;;31.20;16.50;;;4.20;99.90;;;;;;6184925;23;20001;-65
2024/02/03 08:02:08;;;;;;;26.60;15.60;;;4.20;99.90;;;;;;6185392;23;20011;-65
2024/02/03 08:04:34;;;;;;;30.30;15.47;;;4.30;99.90;;;;;;6185326;23;20001;-65
2024/02/03 08:07:00;;;;;;;31.90;16.03;;;4.30;99.90;;;;;;6185104;23;20009;-66
2024/02/03 08:09:25;;;;;;;27.40;15.57;;;4.40;99.90;;;;;;6185148;23;20001;-65
2024/02/03 08:11:51;;;;;;;33.87;17.50;;;4.40;99.90;;;;;;6184985;23;20021;-65
2024/02/03 08:14:17;;;;;;;28.40;17.53;;;4.40;99.90;;;;;;6185405;23;20032;-65
2024/02/03 08:16:42;;;;;;;47.03;18.57;;;4.40;99.90;;;;;;6183076;23;20049;-65
2024/02/03 08:19:08;;;;;;;51.27;19.10;;;4.50;99.90;;;;;;6184602;23;20005;-65
2024/02/03 08:21:36;;;;;;;40.90;19.33;;;4.50;99.90;;;;;;6185233;23;20051;-65
2024/02/03 08:24:02;;;;;;;37.60;21.43;;;4.50;99.90;;;;;;6217081;23;20275;-65
2024/02/03 08:26:28;;;;;;;33.70;19.10;;;4.50;99.90;;;;;;6245427;23;20062;-66
2024/02/03 08:28:54;;;;;;;40.23;18.40;;;4.60;99.90;;;;;;6241905;23;20449;-67
2024/02/03 08:31:19;;;;;;;39.10;19.07;;;4.60;99.90;;;;;;6242180;23;20004;-67
2024/02/03 08:33:45;;;;;;;45.13;19.27;;;4.60;99.90;;;;;;6242368;23;20004;-66
2024/02/03 08:36:11;;;;;;;43.97;18.63;;;4.70;99.90;;;;;;6243946;23;20381;-67
2024/02/03 08:38:37;;;;;;;36.40;18.63;;;4.70;99.90;;;;;;6245183;23;20028;-67
2024/02/03 08:41:03;;;;;;;32.87;18.30;;;4.80;99.90;;;;;;6244936;23;20000;-67
2024/02/03 08:43:29;;;;;;;37.33;19.40;;;4.80;99.90;;;;;;6245110;23;20035;-66
2024/02/03 08:45:55;;;;;;;34.67;18.13;;;4.80;99.90;;;;;;6244994;23;20008;-66
2024/02/03 08:48:21;;;;;;;28.13;17.17;;;4.90;99.90;;;;;;6244977;23;20023;-65
2024/02/03 08:50:47;;;;;;;34.23;17.27;;;4.90;99.90;;;;;;6244295;23;20036;-66
2024/02/03 08:53:12;;;;;;;38.23;17.37;;;4.90;99.90;;;;;;6245196;23;20000;-66
2024/02/03 08:55:38;;;;;;;28.47;17.10;;;4.90;99.90;;;;;;6245497;23;20058;-66
2024/02/03 08:58:04;;;;;;;28.37;17.23;;;5.00;99.90;;;;;;6244592;23;20492;-66
2024/02/03 09:00:30;;;;;;;42.23;18.70;;;5.00;99.90;;;;;;6217946;23;20004;-66
2024/02/03 09:02:56;;;;;;;29.17;16.73;;;5.10;99.90;;;;;;6243692;23;20030;-68
2024/02/03 09:05:22;;;;;;;38.07;17.53;;;5.10;99.90;;;;;;6242080;23;20023;-66
2024/02/03 09:07:49;;;;;;;41.97;18.57;;;5.20;99.90;;;;;;6241541;23;20091;-66
2024/02/03 09:10:15;;;;;;;25.03;16.43;;;5.20;99.90;;;;;;6243150;23;20315;-66
2024/02/03 09:12:41;;;;;;;29.77;16.60;;;5.30;99.90;;;;;;6245314;23;20007;-66
2024/02/03 09:15:07;;;;;;;42.23;19.00;;;5.30;99.90;;;;;;6244995;23;20453;-66
2024/02/03 09:17:32;;;;;;;43.07;21.23;;;5.30;99.90;;;;;;6245003;23;20000;-70
2024/02/03 09:19:58;;;;;;;37.97;20.60;;;5.40;99.90;;;;;;6244479;23;20050;-70
2024/02/03 09:22:24;;;;;;;47.73;20.53;;;5.40;99.90;;;;;;6245522;23;20004;-70
2024/02/03 09:24:50;;;;;;;45.97;20.33;;;5.50;99.90;;;;;;6244277;23;20407;-68
2024/02/03 09:27:15;;;;;;;41.33;24.03;;;5.50;99.90;;;;;;6245021;23;20058;-68
2024/02/03 09:29:41;;;;;;;39.80;24.40;;;5.50;99.90;;;;;;6216567;23;20501;-68
2024/02/03 09:32:08;;;;;;;38.93;22.97;;;5.60;99.90;;;;;;6241643;23;20004;-68
2024/02/03 09:34:34;;;;;;;35.87;21.80;;;5.60;99.90;;;;;;6241431;23;20047;-68
2024/02/03 09:37:00;;;;;;;31.20;20.30;;;5.60;99.90;;;;;;6244022;23;20008;-68
2024/02/03 09:39:26;;;;;;;35.00;19.17;;;5.70;99.90;;;;;;6243737;23;20023;-68
2024/02/03 09:41:54;;;;;;;31.87;19.03;;;5.80;99.90;;;;;;6244088;23;20004;-68
2024/02/03 09:44:21;;;;;;;28.40;19.13;;;5.80;99.90;;;;;;6244078;23;20067;-68
2024/02/03 09:46:47;;;;;;;33.80;20.17;;;5.80;99.90;;;;;;6243814;23;20008;-68
2024/02/03 09:49:13;;;;;;;37.40;20.70;;;5.80;99.90;;;;;;6244193;23;20000;-68
2024/02/03 09:51:39;;;;;;;39.90;24.10;;;5.90;99.90;;;;;;6242421;23;20024;-68
2024/02/03 09:54:06;;;;;;;39.40;23.93;;;5.90;99.90;;;;;;6244149;23;19996;-68
2024/02/03 09:56:32;;;;;;;40.23;21.77;;;6.00;99.90;;;;;;6244299;23;20110;-68
2024/02/03 09:58:57;;;;;;;34.40;21.33;;;6.00;99.90;;;;;;6243801;23;20426;-68
2024/02/03 10:01:23;;;;;;;38.27;20.30;;;6.00;99.90;;;;;;6243934;23;20007;-68
2024/02/03 10:03:56;;;;;;;37.67;20.27;;;6.10;99.90;;;;;;6244504;23;20000;-68
2024/02/03 10:06:22;;;;;;;31.95;18.77;;;6.20;99.90;;;;;;6244394;23;20008;-68
2024/02/03 10:08:52;;;;;;;34.93;18.50;;;6.20;99.90;;;;;;6244433;23;20050;-68
2024/02/03 10:11:21;;;;;;;29.30;15.53;;;6.30;99.90;;;;;;6243915;23;20129;-68
2024/02/03 10:14:05;;;;;;;32.50;15.70;;;6.30;99.90;;;;;;6244119;23;20005;-69
2024/02/03 10:16:41;;;;;;;22.10;14.93;;;6.40;99.90;;;;;;6214992;23;20337;-68
2024/02/03 10:19:07;;;;;;;26.90;16.37;;;6.40;99.90;;;;;;6244002;23;20000;-68
2024/02/03 10:21:33;;;;;;;26.03;15.93;;;6.50;99.90;;;;;;6244244;23;20011;-68
2024/02/03 10:23:59;;;;;;;31.60;15.23;;;6.60;99.90;;;;;;6243585;23;20338;-68
2024/02/03 10:26:25;;;;;;;33.17;14.93;;;6.60;99.90;;;;;;6243429;23;20039;-68
2024/02/03 10:28:50;;;;;;;28.23;16.10;;;6.70;99.90;;;;;;6243373;23;20023;-69
2024/02/03 10:31:16;;;;;;;22.63;14.60;;;6.70;99.90;;;;;;6244902;23;20075;-69
2024/02/03 10:33:44;;;;;;;26.13;14.10;;;6.80;99.90;;;;;;6244850;23;20024;-68
2024/02/03 10:36:10;;;;;;;22.30;14.57;;;6.80;99.90;;;;;;6245189;23;20275;-68
2024/02/03 10:38:36;;;;;;;23.63;14.03;;;6.90;99.90;;;;;;6242550;23;20000;-68
2024/02/03 10:41:05;;;;;;;24.33;14.73;;;6.90;99.90;;;;;;6244438;23;20111;-68
2024/02/03 10:43:34;;;;;;;21.73;12.67;;;6.90;99.90;;;;;;6244315;23;20010;-68
2024/02/03 10:46:04;;;;;;;22.20;13.17;;;7.00;99.90;;;;;;6244519;23;20012;-68
2024/02/03 10:48:33;;;;;;;26.47;14.50;;;7.00;99.90;;;;;;6245041;23;20012;-68
2024/02/03 10:51:14;;;;;;;24.17;13.43;;;7.10;99.90;;;;;;6245614;23;20331;-67
2024/02/03 10:54:05;;;;;;;22.50;13.10;;;7.10;99.90;;;;;;6245280;23;20006;-68
2024/02/03 10:56:35;;;;;;;17.60;12.70;;;7.20;99.90;;;;;;6244640;23;20030;-68
2024/02/03 10:59:05;;;;;;;26.00;15.07;;;7.20;99.90;;;;;;6243762;23;20094;-68
2024/02/03 11:01:36;;;;;;;20.27;13.83;;;7.30;99.90;;;;;;6245143;23;20130;-68
2024/02/03 11:04:03;;;;;;;22.20;13.13;;;7.30;99.90;;;;;;6245753;23;20005;-68
2024/02/03 11:06:30;;;;;;;25.00;14.37;;;7.40;99.90;;;;;;6245023;23;20012;-68
2024/02/03 11:09:29;;;;;;;21.33;14.07;;;7.40;99.90;;;;;;6245467;23;20007;-68
2024/02/03 11:11:55;;;;;;;24.57;13.60;;;7.60;99.90;;;;;;6222067;23;20009;-68
2024/02/03 11:14:24;;;;;;;28.43;14.57;;;7.50;99.90;;;;;;6245591;23;20465;-68
2024/02/03 11:17:04;;;;;;;27.60;15.37;;;7.60;99.90;;;;;;6245055;23;20004;-68
2024/02/03 11:19:35;;;;;;;21.40;13.70;;;7.60;99.90;;;;;;6244969;23;20011;-68
2024/02/03 11:22:03;;;;;;;20.47;13.37;;;7.70;99.90;;;;;;6244987;23;20504;-69
2024/02/03 11:24:30;;;;;;;26.97;14.70;;;7.70;99.90;;;;;;6244506;23;20090;-69
2024/02/03 11:27:03;;;;;;;20.17;13.47;;;7.70;99.90;;;;;;6244729;23;20059;-69
2024/02/03 11:29:31;;;;;;;22.30;13.57;;;7.70;99.90;;;;;;6241483;23;20059;-67
2024/02/03 11:32:02;;;;;;;23.87;13.77;;;7.80;99.90;;;;;;6243750;23;20011;-68
2024/02/03 11:34:30;;;;;;;21.53;13.20;;;7.80;99.90;;;;;;6244482;23;20054;-68
2024/02/03 11:36:56;;;;;;;26.30;13.80;;;7.80;99.90;;;;;;6244131;23;20427;-68
2024/02/03 11:39:35;;;;;;;23.23;14.57;;;7.90;99.90;;;;;;6217386;23;20030;-68
2024/02/03 11:42:06;;;;;;;27.67;14.83;;;7.90;99.90;;;;;;6245070;23;20989;-68
2024/02/03 11:44:58;;;;;;;31.83;15.73;;;8.00;99.90;;;;;;6245480;23;20054;-67
2024/02/03 11:47:24;;;;;;;29.17;15.73;;;8.10;99.90;;;;;;6231508;23;20041;-68
2024/02/03 11:49:51;;;;;;;28.83;16.77;;;8.10;99.90;;;;;;6245059;23;20647;-68
2024/02/03 11:52:18;;;;;;;33.23;16.27;;;8.10;99.90;;;;;;6244756;23;20361;-68
2024/02/03 11:54:44;;;;;;;34.67;15.77;;;8.30;99.90;;;;;;6244853;23;20338;-68
2024/02/03 11:57:10;;;;;;;26.53;13.90;;;8.30;99.90;;;;;;6244658;23;20004;-68
2024/02/03 11:59:36;;;;;;;22.03;13.67;;;8.20;99.90;;;;;;6240927;23;20381;-68
2024/02/03 12:02:04;;;;;;;24.03;13.27;;;8.30;99.90;;;;;;6245031;23;20000;-67
2024/02/03 12:04:30;;;;;;;25.33;13.20;;;8.40;99.90;;;;;;6245192;23;20000;-68
2024/02/03 12:06:56;;;;;;;22.50;13.63;;;8.40;99.90;;;;;;6244705;23;20494;-67
2024/02/03 12:09:22;;;;;;;24.23;13.50;;;8.40;99.90;;;;;;6244586;23;20329;-68
2024/02/03 12:11:49;;;;;;;23.93;14.33;;;8.40;99.90;;;;;;6217987;23;20429;-68
2024/02/03 12:14:17;;;;;;;21.77;13.40;;;8.50;99.90;;;;;;6244531;23;20444;-68
2024/02/03 12:16:44;;;;;;;22.57;13.77;;;8.50;99.90;;;;;;6244167;23;20008;-68
2024/02/03 12:19:10;;;;;;;23.13;13.87;;;8.60;99.90;;;;;;6244801;23;20294;-68
2024/02/03 12:21:36;;;;;;;24.43;13.30;;;8.60;99.90;;;;;;6244754;23;20032;-68
2024/02/03 12:24:02;;;;;;;20.20;12.83;;;8.60;99.90;;;;;;6244823;23;20017;-68
2024/02/03 12:26:28;;;;;;;19.23;13.47;;;8.70;99.90;;;;;;6244355;23;20008;-69
2024/02/03 12:28:54;;;;;;;17.97;12.90;;;8.70;99.90;;;;;;6244987;23;20000;-68
2024/02/03 12:31:20;;;;;;;17.93;10.80;;;8.70;99.90;;;;;;6244372;23;20079;-68
2024/02/03 12:33:46;;;;;;;16.47;11.00;;;8.70;99.30;;;;;;6244378;23;20109;-68